ΕΜΥ, Εθνική Μετεωρολογική Υπηρεσία - Δελτία Καιρού, Προγνώσεις

ΑΕΡΟΝΑΥΤΙΛΙΑ

GREEK AIRPORTS CODES

LGLR 081420Z 12004KT 9999 FEW080 12/03 Q1010=

EUROPEAN AIRPORTS CODES

LFPO 081430Z 25009KT 9999 FEW027 BKN035 07/02 Q1000 NOSIG=